Time;durP1;ratioP1;P1;durP2;ratioP2;P2;SDS_P1;SDS_P2;PMS_P1;PMS_P2;Temp;Humidity;BMP_temperature;BMP_pressure;BME280_temperature;BME280_humidity;BME280_pressure;Samples;Min_cycle;Max_cycle;Signal;HPM_P1;HPM_P2
2021/01/24 00:01:49;;;;;;;4.25;0.98;;;11.30;99.90;;;;;;4729507;30;20028;-80
2021/01/24 00:04:15;;;;;;;4.75;1.60;;;11.30;99.90;;;;;;4731600;30;20043;-80
2021/01/24 00:06:41;;;;;;;10.55;1.42;;;11.30;99.90;;;;;;4730620;30;20032;-80
2021/01/24 00:09:07;;;;;;;5.57;1.80;;;11.30;99.90;;;;;;4729561;30;20044;-80
2021/01/24 00:11:33;;;;;;;11.73;1.20;;;11.30;99.90;;;;;;4728609;30;20043;-80
2021/01/24 00:14:00;;;;;;;3.80;1.30;;;11.30;99.90;;;;;;4717861;30;20414;-80
2021/01/24 00:16:28;;;;;;;4.30;1.70;;;11.30;99.90;;;;;;4730184;30;20033;-80
2021/01/24 00:18:54;;;;;;;8.13;1.75;;;11.30;99.90;;;;;;4731021;30;20044;-80
2021/01/24 00:21:20;;;;;;;5.28;1.35;;;11.20;99.90;;;;;;4731362;30;20037;-80
2021/01/24 00:23:46;;;;;;;13.98;2.22;;;11.20;99.90;;;;;;4730651;30;20147;-81
2021/01/24 00:26:12;;;;;;;7.53;1.10;;;11.20;99.90;;;;;;4729918;30;20112;-80
2021/01/24 00:28:39;;;;;;;8.98;1.73;;;11.20;99.90;;;;;;4728383;30;20542;-81
2021/01/24 00:31:05;;;;;;;6.18;1.42;;;11.20;99.90;;;;;;4731853;30;20064;-80
2021/01/24 00:33:31;;;;;;;3.33;1.02;;;11.20;99.90;;;;;;4731087;30;20036;-81
2021/01/24 00:35:57;;;;;;;7.72;1.13;;;11.20;99.90;;;;;;4730726;30;20042;-82
2021/01/24 00:38:24;;;;;;;4.10;1.10;;;11.20;99.90;;;;;;4731134;30;20032;-81
2021/01/24 00:40:50;;;;;;;8.43;1.10;;;11.30;99.90;;;;;;4728706;30;20043;-80
2021/01/24 00:43:16;;;;;;;7.40;1.45;;;11.40;99.90;;;;;;4729603;30;20040;-81
2021/01/24 00:45:42;;;;;;;5.93;1.42;;;11.40;99.90;;;;;;4730650;30;20041;-81
2021/01/24 00:48:08;;;;;;;4.45;0.93;;;11.40;99.90;;;;;;4731313;30;20112;-81
2021/01/24 00:50:35;;;;;;;8.40;2.20;;;11.40;99.90;;;;;;4730088;30;20056;-82
2021/01/24 00:53:01;;;;;;;12.52;2.47;;;11.50;99.90;;;;;;4729556;30;20117;-81
2021/01/24 00:55:28;;;;;;;8.23;2.33;;;11.50;99.90;;;;;;4729576;30;20032;-81
2021/01/24 00:57:54;;;;;;;7.65;1.13;;;11.40;99.90;;;;;;4730440;30;20064;-81
2021/01/24 01:00:20;;;;;;;5.85;1.10;;;11.50;99.90;;;;;;4730844;30;20082;-81
2021/01/24 01:02:47;;;;;;;5.90;1.70;;;11.40;99.90;;;;;;4732666;30;20119;-81
2021/01/24 01:05:13;;;;;;;12.85;1.95;;;11.30;99.90;;;;;;4728841;30;20144;-80
2021/01/24 01:07:39;;;;;;;10.43;1.48;;;11.30;99.90;;;;;;4728574;30;20070;-80
2021/01/24 01:10:06;;;;;;;6.65;1.90;;;11.20;99.90;;;;;;4729684;30;20028;-80
2021/01/24 01:12:32;;;;;;;7.75;1.92;;;11.10;99.90;;;;;;4729092;30;20044;-81
2021/01/24 01:14:58;;;;;;;6.60;1.48;;;11.10;99.90;;;;;;4730517;30;20049;-81
2021/01/24 01:17:25;;;;;;;2.92;1.30;;;11.10;99.90;;;;;;4730041;30;20101;-81
2021/01/24 01:19:51;;;;;;;7.45;2.38;;;11.00;99.90;;;;;;4714472;30;20055;-81
2021/01/24 01:22:17;;;;;;;6.55;1.23;;;11.00;99.90;;;;;;4730109;30;20562;-81
2021/01/24 01:24:43;;;;;;;7.18;1.33;;;11.00;99.90;;;;;;4714222;30;20391;-81
2021/01/24 01:27:09;;;;;;;4.32;1.02;;;10.90;99.90;;;;;;4730655;30;20032;-81
2021/01/24 01:29:35;;;;;;;4.90;1.10;;;10.90;99.90;;;;;;4713708;30;20497;-81
2021/01/24 01:32:01;;;;;;;14.27;1.75;;;10.90;99.90;;;;;;4730557;30;20037;-79
2021/01/24 01:34:28;;;;;;;6.20;1.40;;;10.90;99.90;;;;;;4730050;30;20056;-80
2021/01/24 01:36:54;;;;;;;11.18;1.48;;;10.90;99.90;;;;;;4730589;30;20116;-79
2021/01/24 01:39:20;;;;;;;12.65;2.05;;;11.00;99.90;;;;;;4728472;30;20136;-80
2021/01/24 01:41:46;;;;;;;4.32;1.48;;;11.00;99.90;;;;;;4709146;30;20038;-80
2021/01/24 01:44:12;;;;;;;5.85;1.20;;;10.90;99.90;;;;;;4728442;30;20043;-81
2021/01/24 01:46:40;;;;;;;4.13;1.50;;;11.00;99.90;;;;;;4722519;30;20499;-81
2021/01/24 01:49:06;;;;;;;5.35;0.90;;;11.00;99.90;;;;;;4730638;30;20111;-82
2021/01/24 01:51:32;;;;;;;8.43;1.27;;;10.90;99.90;;;;;;4718890;30;20037;-82
2021/01/24 01:53:59;;;;;;;6.20;1.38;;;10.90;99.90;;;;;;4723554;30;20402;-82
2021/01/24 01:56:25;;;;;;;3.80;1.98;;;10.90;99.90;;;;;;4748830;30;20056;-81
2021/01/24 01:58:51;;;;;;;9.85;1.35;;;10.90;99.90;;;;;;4730074;30;20037;-81
2021/01/24 02:01:23;;;;;;;6.35;1.40;;;10.90;99.90;;;;;;4724556;30;20033;-81
2021/01/24 02:04:14;;;;;;;6.28;1.23;;;10.90;99.90;;;;;;4716337;30;20107;-82
2021/01/24 02:06:59;;;;;;;8.05;1.42;;;10.80;99.90;;;;;;4748643;30;20039;-81
2021/01/24 02:09:44;;;;;;;6.65;1.95;;;10.80;99.90;;;;;;4713886;30;20068;-81
2021/01/24 02:12:19;;;;;;;3.83;1.13;;;10.80;99.90;;;;;;4713409;30;20133;-80
2021/01/24 02:14:56;;;;;;;3.30;1.10;;;10.70;99.90;;;;;;4733654;30;20053;-81
2021/01/24 02:17:25;;;;;;;8.93;1.50;;;10.70;99.90;;;;;;4732709;30;20066;-81
2021/01/24 02:20:13;;;;;;;7.95;1.85;;;10.60;99.90;;;;;;4733107;30;20132;-81
2021/01/24 02:22:42;;;;;;;5.38;1.42;;;10.50;99.90;;;;;;4721446;30;20095;-81
2021/01/24 02:25:29;;;;;;;11.15;1.80;;;10.50;99.90;;;;;;4712889;30;20036;-82
2021/01/24 02:28:20;;;;;;;7.20;1.85;;;10.40;99.90;;;;;;4747677;30;20400;-81
2021/01/24 02:30:47;;;;;;;5.82;1.42;;;10.50;99.90;;;;;;4733361;30;20048;-81
2021/01/24 02:33:18;;;;;;;4.75;1.30;;;10.40;99.90;;;;;;4733508;30;20057;-80
2021/01/24 02:35:48;;;;;;;5.15;1.77;;;10.40;99.90;;;;;;4738430;30;20403;-81
2021/01/24 02:38:16;;;;;;;6.18;1.20;;;10.50;99.90;;;;;;4719145;30;20033;-81
2021/01/24 02:40:42;;;;;;;5.82;1.42;;;10.40;99.90;;;;;;4732919;30;20040;-81
2021/01/24 02:43:10;;;;;;;7.22;1.48;;;10.40;99.90;;;;;;4732940;30;20445;-81
2021/01/24 02:45:41;;;;;;;6.28;1.45;;;10.50;99.90;;;;;;4736562;30;20032;-81
2021/01/24 02:48:08;;;;;;;4.22;1.73;;;10.40;99.90;;;;;;4743693;30;20486;-81
2021/01/24 02:50:36;;;;;;;10.98;1.50;;;10.40;99.90;;;;;;4731804;30;20494;-81
2021/01/24 02:53:04;;;;;;;7.35;1.95;;;10.40;99.90;;;;;;4732450;30;20037;-81
2021/01/24 02:55:30;;;;;;;10.20;2.75;;;10.40;99.90;;;;;;4734433;30;20095;-81
2021/01/24 02:57:56;;;;;;;5.20;1.65;;;10.40;99.90;;;;;;4751273;30;20451;-80
2021/01/24 03:00:24;;;;;;;13.75;1.90;;;10.40;99.90;;;;;;4738677;30;20037;-80
2021/01/24 03:02:50;;;;;;;5.95;1.95;;;10.40;99.90;;;;;;4733490;30;20040;-81
2021/01/24 03:05:17;;;;;;;10.93;1.92;;;10.50;99.90;;;;;;4734067;30;20036;-81
2021/01/24 03:07:44;;;;;;;4.70;1.00;;;10.50;99.90;;;;;;4735467;30;20056;-81
2021/01/24 03:10:11;;;;;;;5.22;1.25;;;10.60;99.90;;;;;;4732174;30;20499;-81
2021/01/24 03:12:55;;;;;;;5.57;1.23;;;10.60;99.90;;;;;;4733739;30;20037;-81
2021/01/24 03:15:22;;;;;;;4.95;1.27;;;10.70;99.90;;;;;;4700549;30;20062;-81
2021/01/24 03:17:50;;;;;;;14.55;3.58;;;10.70;99.90;;;;;;4740865;30;20090;-81
2021/01/24 03:20:18;;;;;;;7.40;2.30;;;10.80;99.90;;;;;;4742563;30;20032;-80
2021/01/24 03:22:46;;;;;;;6.13;1.40;;;10.80;99.90;;;;;;4718307;30;20069;-81
2021/01/24 03:25:14;;;;;;;4.38;1.25;;;10.90;99.90;;;;;;4715155;30;20455;-80
2021/01/24 03:27:41;;;;;;;6.90;1.85;;;10.90;99.90;;;;;;4725768;30;20082;-81
2021/01/24 03:30:07;;;;;;;5.13;1.30;;;10.80;99.90;;;;;;4731220;30;20063;-81
2021/01/24 03:32:34;;;;;;;9.13;1.70;;;10.90;99.90;;;;;;4732101;30;20029;-81
2021/01/24 03:35:00;;;;;;;3.70;0.95;;;10.90;99.90;;;;;;4720676;30;20056;-81
2021/01/24 03:37:26;;;;;;;8.95;1.35;;;10.90;99.90;;;;;;4725049;30;20040;-81
2021/01/24 03:39:52;;;;;;;3.63;1.40;;;10.80;99.90;;;;;;4749706;30;20375;-80
2021/01/24 03:42:18;;;;;;;9.23;1.48;;;10.80;99.90;;;;;;4734590;30;20394;-81
2021/01/24 03:44:44;;;;;;;5.70;1.55;;;10.80;99.90;;;;;;4726943;30;20033;-81
2021/01/24 03:47:11;;;;;;;5.97;2.05;;;10.70;99.90;;;;;;4714910;30;20044;-81
2021/01/24 03:49:38;;;;;;;7.00;1.45;;;10.70;99.90;;;;;;4749138;30;20490;-79
2021/01/24 03:52:04;;;;;;;8.05;1.38;;;10.70;99.90;;;;;;4737659;30;20068;-80
2021/01/24 03:54:30;;;;;;;7.55;1.58;;;10.70;99.90;;;;;;4732853;30;20485;-80
2021/01/24 03:56:56;;;;;;;6.40;1.85;;;10.60;99.90;;;;;;4732654;30;20033;-81
2021/01/24 03:59:22;;;;;;;3.53;1.77;;;10.60;99.90;;;;;;4743095;30;20577;-81
2021/01/24 04:01:49;;;;;;;5.22;1.85;;;10.60;99.90;;;;;;4732104;30;20036;-81
2021/01/24 04:04:15;;;;;;;6.90;1.77;;;10.60;99.90;;;;;;4733002;30;20040;-81
2021/01/24 04:06:42;;;;;;;4.50;1.35;;;10.60;99.90;;;;;;4716282;30;20044;-81
2021/01/24 04:09:08;;;;;;;10.02;1.58;;;10.60;99.90;;;;;;4730760;30;20146;-81
2021/01/24 04:11:34;;;;;;;10.18;2.30;;;10.60;99.90;;;;;;4731967;30;20075;-81
2021/01/24 04:14:00;;;;;;;8.43;1.60;;;10.60;99.90;;;;;;4732317;30;20052;-80
2021/01/24 04:16:26;;;;;;;5.70;1.85;;;10.50;99.90;;;;;;4731096;30;20044;-81
2021/01/24 04:18:52;;;;;;;12.38;2.20;;;10.50;99.90;;;;;;4731899;30;20029;-81
2021/01/24 04:21:18;;;;;;;7.90;1.90;;;10.40;99.90;;;;;;4722782;30;20148;-81
2021/01/24 04:23:44;;;;;;;11.45;2.13;;;10.40;99.90;;;;;;4750091;30;20048;-81
2021/01/24 04:26:11;;;;;;;6.82;2.10;;;10.40;99.90;;;;;;4749985;30;20084;-81
2021/01/24 04:28:37;;;;;;;5.25;1.63;;;10.40;99.90;;;;;;4749378;30;20040;-81
2021/01/24 04:31:03;;;;;;;8.07;2.20;;;10.40;99.90;;;;;;4744901;30;20509;-80
2021/01/24 04:33:29;;;;;;;6.25;1.30;;;10.30;99.90;;;;;;4732467;30;20192;-82
2021/01/24 04:35:55;;;;;;;6.00;1.33;;;10.30;99.90;;;;;;4730456;30;20029;-82
2021/01/24 04:38:21;;;;;;;6.47;1.75;;;10.30;99.90;;;;;;4729249;30;20535;-81
2021/01/24 04:40:48;;;;;;;9.43;1.60;;;10.30;99.90;;;;;;4732338;30;20041;-80
2021/01/24 04:43:15;;;;;;;11.75;2.20;;;10.30;99.90;;;;;;4731119;30;20398;-81
2021/01/24 04:45:41;;;;;;;15.02;3.15;;;10.30;99.90;;;;;;4724163;30;20035;-80
2021/01/24 04:48:10;;;;;;;8.45;2.45;;;10.40;99.90;;;;;;4728903;30;20487;-81
2021/01/24 04:50:37;;;;;;;15.52;1.75;;;10.40;99.90;;;;;;4731266;30;20028;-80
2021/01/24 04:53:04;;;;;;;9.35;2.72;;;10.40;99.90;;;;;;4731995;30;20040;-81
2021/01/24 04:55:30;;;;;;;9.35;1.63;;;10.40;99.90;;;;;;4732049;30;20040;-81
2021/01/24 04:57:57;;;;;;;5.97;1.58;;;10.40;99.90;;;;;;4722163;30;20091;-81
2021/01/24 05:00:24;;;;;;;12.80;2.60;;;10.50;99.90;;;;;;4721322;30;20499;-81
2021/01/24 05:02:50;;;;;;;5.45;1.48;;;10.50;99.90;;;;;;4738355;30;20123;-81
2021/01/24 05:05:16;;;;;;;8.93;2.08;;;10.50;99.90;;;;;;4747997;30;20400;-82
2021/01/24 05:08:06;;;;;;;7.07;1.50;;;10.40;99.90;;;;;;4742375;30;20053;-80
2021/01/24 05:10:32;;;;;;;5.47;1.35;;;10.30;99.90;;;;;;4731040;30;20082;-80
2021/01/24 05:12:58;;;;;;;8.80;1.73;;;10.30;99.90;;;;;;4717258;30;20037;-80
2021/01/24 05:15:26;;;;;;;6.65;1.80;;;10.30;99.90;;;;;;4715571;30;20048;-81
2021/01/24 05:17:58;;;;;;;9.30;1.35;;;10.30;99.90;;;;;;4729652;30;20765;-80
2021/01/24 05:20:29;;;;;;;6.72;1.23;;;10.40;99.90;;;;;;4728011;30;20039;-80
2021/01/24 05:22:57;;;;;;;8.93;1.30;;;10.40;99.90;;;;;;4733349;30;20083;-81
2021/01/24 05:25:27;;;;;;;12.05;2.30;;;10.50;99.90;;;;;;4733459;30;20036;-81
2021/01/24 05:27:54;;;;;;;7.03;1.50;;;10.60;99.90;;;;;;4749025;30;20032;-81
2021/01/24 05:30:33;;;;;;;5.40;1.60;;;10.60;99.90;;;;;;4746376;30;20522;-80
2021/01/24 05:33:00;;;;;;;14.00;1.80;;;10.70;99.90;;;;;;4730621;30;20037;-81
2021/01/24 05:35:27;;;;;;;8.77;2.42;;;10.70;99.90;;;;;;4730329;30;20044;-81
2021/01/24 05:37:53;;;;;;;8.98;1.90;;;10.80;99.90;;;;;;4731272;30;20039;-81
2021/01/24 05:40:20;;;;;;;7.10;1.50;;;10.80;99.90;;;;;;4720209;30;20131;-81
2021/01/24 05:42:47;;;;;;;9.35;1.30;;;10.90;99.90;;;;;;4727722;30;20098;-81
2021/01/24 05:45:15;;;;;;;7.70;2.33;;;10.90;99.90;;;;;;4730328;30;20123;-81
2021/01/24 05:47:46;;;;;;;13.38;2.03;;;10.90;99.90;;;;;;4725847;30;20409;-81
2021/01/24 05:50:14;;;;;;;6.70;1.15;;;10.90;99.90;;;;;;4725568;30;20042;-81
2021/01/24 05:52:48;;;;;;;10.35;1.73;;;10.90;99.90;;;;;;4726909;30;20044;-82
2021/01/24 05:55:30;;;;;;;9.82;1.58;;;10.90;99.90;;;;;;4734663;30;20040;-80
2021/01/24 05:57:57;;;;;;;6.18;1.15;;;10.90;99.90;;;;;;4734832;30;20112;-82
2021/01/24 06:00:23;;;;;;;4.18;1.40;;;10.90;99.90;;;;;;4739622;30;20149;-81
2021/01/24 06:02:50;;;;;;;11.32;2.45;;;10.90;99.90;;;;;;4745253;30;20509;-79
2021/01/24 06:05:16;;;;;;;4.60;1.85;;;10.90;99.90;;;;;;4719386;30;20034;-79
2021/01/24 06:07:42;;;;;;;6.82;2.08;;;10.90;99.90;;;;;;4715916;30;20069;-79
2021/01/24 06:10:08;;;;;;;7.97;2.20;;;10.90;99.90;;;;;;4718770;30;20033;-79
2021/01/24 06:12:44;;;;;;;11.15;1.65;;;10.90;99.90;;;;;;4748436;30;20070;-79
2021/01/24 06:15:13;;;;;;;6.78;1.35;;;10.90;99.90;;;;;;4728939;30;20574;-80
2021/01/24 06:17:44;;;;;;;7.25;1.45;;;10.80;99.90;;;;;;4717098;30;20087;-79
2021/01/24 06:20:16;;;;;;;7.10;1.30;;;10.80;99.90;;;;;;4719798;30;20033;-79
2021/01/24 06:22:47;;;;;;;8.35;2.15;;;10.80;99.90;;;;;;4763596;30;20036;-79
2021/01/24 06:25:28;;;;;;;7.93;1.42;;;10.80;99.90;;;;;;4703532;30;20483;-79
2021/01/24 06:28:19;;;;;;;5.43;1.27;;;10.80;99.90;;;;;;4729371;30;20451;-78
2021/01/24 06:30:47;;;;;;;7.45;1.63;;;10.80;99.90;;;;;;4715366;30;20048;-80
2021/01/24 06:33:18;;;;;;;5.55;1.48;;;10.90;99.90;;;;;;4748786;30;20039;-79
2021/01/24 06:35:45;;;;;;;10.70;1.48;;;10.90;99.90;;;;;;4734264;30;20707;-79
2021/01/24 06:38:34;;;;;;;5.75;1.67;;;10.90;99.90;;;;;;4733750;30;20108;-79
2021/01/24 06:41:03;;;;;;;7.20;1.52;;;11.00;99.90;;;;;;4733268;30;20453;-78
2021/01/24 06:43:37;;;;;;;10.10;1.98;;;10.90;99.90;;;;;;4732307;30;20051;-80
2021/01/24 06:46:26;;;;;;;10.85;2.13;;;10.90;99.90;;;;;;4724833;30;20037;-80
2021/01/24 06:48:53;;;;;;;10.07;2.28;;;10.90;99.90;;;;;;4717367;30;20045;-80
2021/01/24 06:51:34;;;;;;;10.48;2.08;;;10.90;99.90;;;;;;4722196;30;20029;-80
2021/01/24 06:54:24;;;;;;;11.55;2.63;;;11.00;99.90;;;;;;4716891;30;20471;-81
2021/01/24 06:56:50;;;;;;;14.07;2.55;;;11.00;99.90;;;;;;4717421;30;20126;-81
2021/01/24 06:59:28;;;;;;;10.80;2.08;;;11.00;99.90;;;;;;4733569;30;20118;-80
2021/01/24 07:02:32;;;;;;;8.48;2.78;;;11.10;99.90;;;;;;4733858;30;20036;-81
2021/01/24 07:05:17;;;;;;;;;;;11.00;99.90;;;;;;4731089;30;20032;-81
2021/01/24 07:07:45;;;;;;;15.50;2.55;;;11.10;99.90;;;;;;4716815;30;19923;-81
2021/01/24 07:10:37;;;;;;;15.80;4.03;;;11.10;99.90;;;;;;4710202;30;20124;-81
2021/01/24 07:13:24;;;;;;;9.15;2.08;;;11.10;99.90;;;;;;4737740;30;20148;-81
2021/01/24 07:15:55;;;;;;;10.57;2.50;;;11.10;99.90;;;;;;4732602;30;20579;-80
2021/01/24 07:18:22;;;;;;;9.82;2.25;;;11.20;99.90;;;;;;4732261;30;20094;-80
2021/01/24 07:20:52;;;;;;;14.50;3.80;;;11.20;99.90;;;;;;4732039;30;20041;-80
2021/01/24 07:23:19;;;;;;;18.58;2.53;;;11.30;99.90;;;;;;4733301;30;20060;-79
2021/01/24 07:25:45;;;;;;;7.78;2.67;;;11.30;99.90;;;;;;4709271;30;20563;-80
2021/01/24 07:28:18;;;;;;;12.45;2.03;;;11.40;99.90;;;;;;4714669;30;20043;-80
2021/01/24 07:30:44;;;;;;;6.32;2.08;;;11.40;99.90;;;;;;4714384;30;20503;-80
2021/01/24 07:33:28;;;;;;;11.90;3.15;;;11.50;99.90;;;;;;4725820;30;20142;-80
2021/01/24 07:36:04;;;;;;;17.27;2.67;;;11.60;99.90;;;;;;4727161;30;20411;-80
2021/01/24 07:38:30;;;;;;;14.27;3.47;;;11.60;99.90;;;;;;4728114;30;20478;-80
2021/01/24 07:40:59;;;;;;;31.98;3.47;;;11.70;99.90;;;;;;4731799;30;20060;-79
2021/01/24 07:43:27;;;;;;;11.38;4.07;;;11.70;99.90;;;;;;4732504;30;21393;-79
2021/01/24 07:45:54;;;;;;;14.23;3.55;;;11.80;99.90;;;;;;4750613;30;20040;-79
2021/01/24 07:48:21;;;;;;;20.35;3.53;;;11.80;99.90;;;;;;4749734;30;20107;-80
2021/01/24 07:50:47;;;;;;;14.30;3.45;;;11.90;99.90;;;;;;4734249;30;20095;-80
2021/01/24 07:53:19;;;;;;;10.55;2.15;;;11.90;99.90;;;;;;4728345;30;20393;-80
2021/01/24 07:55:47;;;;;;;9.77;2.22;;;11.90;99.90;;;;;;4747140;30;20119;-79
2021/01/24 07:58:14;;;;;;;15.38;3.88;;;11.90;99.90;;;;;;4750708;30;20047;-79
2021/01/24 08:00:41;;;;;;;15.20;4.35;;;12.00;99.90;;;;;;4750846;30;20044;-81
2021/01/24 08:03:07;;;;;;;12.75;4.35;;;12.00;99.90;;;;;;4741706;30;20036;-80
2021/01/24 08:05:33;;;;;;;11.52;3.17;;;12.10;99.90;;;;;;4744332;30;20044;-81
2021/01/24 08:08:00;;;;;;;12.43;2.55;;;12.00;99.90;;;;;;4748986;30;20159;-81
2021/01/24 08:10:31;;;;;;;13.85;2.80;;;12.10;99.90;;;;;;4749151;30;20040;-81
2021/01/24 08:13:14;;;;;;;15.52;2.83;;;12.10;99.90;;;;;;4743467;30;20037;-80
2021/01/24 08:15:46;;;;;;;15.48;4.38;;;12.10;99.90;;;;;;4740893;30;20067;-80
2021/01/24 08:18:12;;;;;;;10.52;2.45;;;12.20;99.90;;;;;;4732262;30;20039;-80
2021/01/24 08:20:38;;;;;;;13.63;3.72;;;12.30;99.90;;;;;;4715024;30;20127;-78
2021/01/24 08:23:05;;;;;;;16.27;3.78;;;12.30;99.90;;;;;;4731710;30;20040;-79
2021/01/24 08:25:31;;;;;;;12.68;3.20;;;12.30;99.90;;;;;;4737511;30;20067;-81
2021/01/24 08:27:58;;;;;;;22.42;4.15;;;12.40;99.90;;;;;;4731243;30;20033;-80
2021/01/24 08:30:24;;;;;;;9.07;2.47;;;12.40;99.90;;;;;;4715241;30;20041;-81
2021/01/24 08:32:50;;;;;;;18.15;2.92;;;12.40;99.90;;;;;;4728802;30;20036;-80
2021/01/24 08:35:16;;;;;;;24.17;3.03;;;12.50;99.90;;;;;;4719046;30;20043;-80
2021/01/24 08:37:43;;;;;;;16.10;3.20;;;12.50;99.90;;;;;;4749054;30;20035;-80
2021/01/24 08:40:10;;;;;;;12.10;3.92;;;12.60;99.90;;;;;;4732090;30;20037;-76
2021/01/24 08:42:48;;;;;;;15.55;3.80;;;12.50;99.90;;;;;;4731607;30;20068;-76
2021/01/24 08:45:25;;;;;;;9.32;3.40;;;12.50;99.90;;;;;;4734228;30;20029;-77
2021/01/24 08:47:59;;;;;;;7.95;3.38;;;12.50;99.90;;;;;;4731251;30;20119;-76
2021/01/24 08:50:37;;;;;;;13.93;3.50;;;12.50;99.90;;;;;;4716554;30;20029;-76
2021/01/24 08:53:05;;;;;;;12.07;2.60;;;12.50;99.90;;;;;;4724084;30;20106;-76
2021/01/24 08:55:45;;;;;;;9.75;3.35;;;12.50;99.90;;;;;;4731827;30;20083;-77
2021/01/24 08:58:28;;;;;;;10.10;2.40;;;12.50;99.90;;;;;;4729376;30;20234;-77
2021/01/24 09:01:11;;;;;;;12.55;2.63;;;12.50;99.90;;;;;;4730669;30;20037;-76
2021/01/24 09:03:37;;;;;;;13.95;1.95;;;12.60;99.90;;;;;;4721126;30;20120;-76
2021/01/24 09:06:16;;;;;;;8.50;2.08;;;12.60;99.90;;;;;;4738974;30;20379;-76
2021/01/24 09:08:59;;;;;;;7.57;2.05;;;12.60;99.90;;;;;;4727869;30;20114;-75
2021/01/24 09:11:25;;;;;;;7.75;2.75;;;12.70;99.90;;;;;;4731268;30;20434;-75
2021/01/24 09:13:51;;;;;;;12.98;3.25;;;12.70;99.90;;;;;;4731023;30;20102;-75
2021/01/24 09:16:21;;;;;;;11.25;3.30;;;12.70;99.90;;;;;;4731854;30;20041;-76
2021/01/24 09:18:47;;;;;;;17.33;3.90;;;12.80;99.90;;;;;;4729810;30;20534;-75
2021/01/24 09:21:13;;;;;;;9.88;3.08;;;12.80;99.90;;;;;;4731376;30;20448;-75
2021/01/24 09:23:39;;;;;;;15.10;3.95;;;12.70;99.90;;;;;;4714514;30;20045;-75
2021/01/24 09:26:05;;;;;;;17.60;3.40;;;12.70;99.90;;;;;;4722006;30;20112;-78
2021/01/24 09:28:31;;;;;;;13.35;4.25;;;12.80;99.90;;;;;;4736795;30;20033;-79
2021/01/24 09:30:57;;;;;;;14.13;2.42;;;12.80;99.90;;;;;;4731514;30;20068;-77
2021/01/24 09:33:23;;;;;;;8.27;2.60;;;12.80;99.90;;;;;;4725212;30;20109;-79
2021/01/24 09:35:49;;;;;;;13.13;3.83;;;12.90;99.90;;;;;;4714082;30;20231;-76
2021/01/24 09:38:15;;;;;;;11.48;3.20;;;12.90;99.90;;;;;;4732072;30;20074;-76
2021/01/24 09:40:41;;;;;;;16.50;3.17;;;13.00;99.90;;;;;;4731582;30;20568;-79
2021/01/24 09:43:07;;;;;;;15.38;4.55;;;13.00;99.90;;;;;;4731625;30;20126;-78
2021/01/24 09:45:34;;;;;;;16.85;3.10;;;13.10;99.90;;;;;;4731438;30;20028;-75
2021/01/24 09:48:00;;;;;;;12.63;3.08;;;13.10;99.90;;;;;;4734444;30;20503;-77
2021/01/24 09:50:26;;;;;;;10.02;2.75;;;13.10;99.90;;;;;;4735044;30;20040;-74
2021/01/24 09:52:52;;;;;;;18.52;5.38;;;13.10;99.90;;;;;;4731314;30;20032;-76
2021/01/24 09:55:18;;;;;;;13.88;3.22;;;13.10;99.90;;;;;;4731483;30;20582;-76
2021/01/24 09:57:44;;;;;;;10.00;2.95;;;13.10;99.90;;;;;;4731193;30;20491;-76
2021/01/24 10:00:11;;;;;;;28.15;4.45;;;13.10;99.90;;;;;;4735285;30;20048;-75
2021/01/24 10:02:40;;;;;;;7.75;2.47;;;13.10;99.90;;;;;;4713674;30;20174;-76
2021/01/24 10:05:07;;;;;;;9.80;3.50;;;13.00;99.90;;;;;;4727057;30;20041;-77
2021/01/24 10:07:33;;;;;;;9.60;2.42;;;13.00;99.90;;;;;;4722209;30;20045;-78
2021/01/24 10:09:59;;;;;;;10.23;3.35;;;13.00;99.90;;;;;;4737579;30;20045;-76
2021/01/24 10:12:25;;;;;;;11.35;2.58;;;12.90;99.90;;;;;;4739606;30;20043;-78
2021/01/24 10:14:51;;;;;;;9.45;2.92;;;12.90;99.90;;;;;;4739696;30;20040;-78
2021/01/24 10:17:17;;;;;;;24.08;3.20;;;12.90;99.90;;;;;;4729931;30;20091;-79
2021/01/24 10:19:43;;;;;;;18.80;3.88;;;12.90;99.90;;;;;;4740263;30;20122;-77
2021/01/24 10:22:09;;;;;;;9.38;2.95;;;12.90;99.90;;;;;;4732925;30;20642;-76
2021/01/24 10:24:35;;;;;;;11.40;2.75;;;13.00;99.90;;;;;;4730613;30;20403;-77
2021/01/24 10:27:01;;;;;;;13.65;2.90;;;13.00;99.90;;;;;;4731215;30;20051;-78
2021/01/24 10:29:28;;;;;;;7.85;2.15;;;13.00;99.90;;;;;;4735790;30;20119;-77
2021/01/24 10:31:54;;;;;;;22.98;4.10;;;13.00;99.90;;;;;;4737290;30;20033;-79
2021/01/24 10:34:20;;;;;;;12.63;3.85;;;13.10;99.90;;;;;;4731051;30;20051;-78
2021/01/24 10:36:46;;;;;;;8.93;3.20;;;13.10;99.90;;;;;;4715328;30;20033;-77
2021/01/24 10:39:12;;;;;;;8.70;2.50;;;13.20;99.90;;;;;;4717624;30;20037;-76
2021/01/24 10:41:38;;;;;;;13.40;4.07;;;13.30;99.90;;;;;;4745016;30;20048;-76
2021/01/24 10:44:04;;;;;;;14.23;3.15;;;13.40;99.90;;;;;;4747854;30;20490;-76
2021/01/24 10:46:30;;;;;;;10.68;2.35;;;13.50;99.90;;;;;;4737748;30;20036;-76
2021/01/24 10:48:57;;;;;;;7.60;2.47;;;13.60;99.90;;;;;;4717728;30;20036;-76
2021/01/24 10:51:23;;;;;;;14.38;3.22;;;13.70;99.90;;;;;;4742208;30;20513;-76
2021/01/24 10:53:49;;;;;;;11.75;2.85;;;13.90;99.90;;;;;;4733636;30;20037;-76
2021/01/24 10:56:16;;;;;;;13.93;3.85;;;13.90;99.90;;;;;;4727055;30;20436;-77
2021/01/24 10:58:43;;;;;;;13.98;3.65;;;14.00;99.90;;;;;;4715178;30;20037;-76
2021/01/24 11:01:09;;;;;;;8.68;3.15;;;14.00;99.90;;;;;;4735359;30;20044;-76
2021/01/24 11:03:35;;;;;;;9.23;3.03;;;14.00;99.90;;;;;;4727227;30;20036;-76
2021/01/24 11:06:01;;;;;;;5.28;1.65;;;14.10;99.90;;;;;;4723680;30;20039;-76
2021/01/24 11:08:27;;;;;;;19.17;2.67;;;14.10;99.90;;;;;;4723440;30;20068;-76
2021/01/24 11:10:54;;;;;;;8.52;1.85;;;14.20;99.90;;;;;;4724517;30;20051;-76
2021/01/24 11:13:20;;;;;;;9.50;2.67;;;14.20;99.90;;;;;;4726687;30;20047;-76
2021/01/24 11:15:46;;;;;;;15.43;2.95;;;14.20;99.90;;;;;;4729581;30;20049;-76
2021/01/24 11:18:12;;;;;;;20.80;2.75;;;14.20;99.90;;;;;;4729342;30;20032;-76
2021/01/24 11:20:38;;;;;;;23.88;3.15;;;14.20;99.90;;;;;;4730385;30;20040;-76
2021/01/24 11:23:04;;;;;;;14.32;3.13;;;14.20;99.90;;;;;;4727677;30;20460;-77
2021/01/24 11:25:30;;;;;;;10.77;3.13;;;14.20;99.90;;;;;;4730190;30;20048;-76
2021/01/24 11:27:56;;;;;;;10.00;3.50;;;14.10;99.90;;;;;;4731335;30;20039;-76
2021/01/24 11:30:23;;;;;;;11.27;3.17;;;14.00;99.90;;;;;;4732050;30;20046;-76
2021/01/24 11:32:49;;;;;;;15.27;3.92;;;14.00;99.90;;;;;;4730072;30;20390;-76
2021/01/24 11:35:15;;;;;;;7.70;3.05;;;14.00;99.90;;;;;;4731894;30;20079;-76
2021/01/24 11:37:42;;;;;;;11.88;3.50;;;13.90;99.90;;;;;;4730493;30;20064;-76
2021/01/24 11:40:09;;;;;;;12.98;3.25;;;13.90;99.90;;;;;;4729773;30;20040;-76
2021/01/24 11:42:36;;;;;;;12.48;3.67;;;13.90;99.90;;;;;;4731342;30;20041;-77
2021/01/24 11:45:06;;;;;;;12.45;3.30;;;14.00;99.90;;;;;;4730999;30;20438;-76
2021/01/24 11:47:33;;;;;;;13.48;2.75;;;14.00;99.90;;;;;;4730367;30;20806;-77
2021/01/24 11:49:59;;;;;;;9.85;2.30;;;14.00;99.90;;;;;;4730273;30;20090;-77
2021/01/24 11:52:25;;;;;;;14.70;2.50;;;14.00;99.90;;;;;;4731718;30;20060;-76
2021/01/24 11:54:51;;;;;;;7.63;1.83;;;13.90;99.90;;;;;;4732197;30;20919;-78
2021/01/24 11:57:17;;;;;;;13.60;3.85;;;13.90;99.90;;;;;;4729008;30;20075;-77
2021/01/24 11:59:43;;;;;;;14.98;2.50;;;13.90;99.90;;;;;;4731811;30;21130;-77
2021/01/24 12:02:10;;;;;;;8.60;2.25;;;13.80;99.90;;;;;;4730129;30;20042;-76
2021/01/24 12:04:36;;;;;;;14.10;3.83;;;13.80;99.90;;;;;;4732395;30;20037;-77
2021/01/24 12:07:02;;;;;;;8.75;2.70;;;13.80;99.90;;;;;;4729394;30;20119;-75
2021/01/24 12:09:28;;;;;;;7.63;2.40;;;13.80;99.90;;;;;;4730522;30;20447;-77
2021/01/24 12:11:54;;;;;;;10.88;2.58;;;13.80;99.90;;;;;;4730643;30;20059;-76
2021/01/24 12:14:20;;;;;;;16.92;3.78;;;13.70;99.90;;;;;;4729960;30;20127;-77
2021/01/24 12:16:46;;;;;;;13.57;3.15;;;13.70;99.90;;;;;;4727690;30;20107;-78
2021/01/24 12:19:12;;;;;;;7.90;1.80;;;13.80;99.90;;;;;;4730361;30;20029;-77
2021/01/24 12:21:39;;;;;;;13.38;3.60;;;13.80;99.90;;;;;;4729449;30;20552;-80
2021/01/24 12:24:07;;;;;;;13.40;3.45;;;13.80;99.90;;;;;;4729064;30;20025;-78
2021/01/24 12:26:33;;;;;;;18.63;3.05;;;13.90;99.90;;;;;;4728464;30;20137;-77
2021/01/24 12:28:59;;;;;;;9.20;3.38;;;13.90;99.90;;;;;;4730590;30;20063;-77
2021/01/24 12:31:25;;;;;;;9.32;3.13;;;13.80;99.90;;;;;;4727481;30;20491;-76
2021/01/24 12:33:51;;;;;;;24.70;3.05;;;13.80;99.90;;;;;;4729418;30;20127;-78
2021/01/24 12:36:17;;;;;;;16.17;4.03;;;13.70;99.90;;;;;;4730693;30;20094;-78
2021/01/24 12:38:43;;;;;;;5.47;2.47;;;13.80;99.90;;;;;;4730713;30;20028;-77
2021/01/24 12:41:09;;;;;;;12.23;2.83;;;13.80;99.90;;;;;;4729952;30;20060;-77
2021/01/24 12:43:35;;;;;;;15.23;3.65;;;13.80;99.90;;;;;;4729785;30;20047;-77
2021/01/24 12:46:01;;;;;;;13.48;2.85;;;13.70;99.90;;;;;;4730609;30;20040;-77
2021/01/24 12:48:27;;;;;;;13.30;2.78;;;13.80;99.90;;;;;;4731225;30;20032;-77
2021/01/24 12:50:53;;;;;;;12.05;3.15;;;13.80;99.90;;;;;;4730271;30;20391;-77